Tiempo atmosférico en la estación meteorológica de Cervantes, Lugo (1020 m.)



Fecha
DESCASC
Temp. máxima en grados centígrados (hora)
DESCASC
Temp. mínima en grados centígrados (hora)
DESCASC
Temp. media en grados centígrados
DESCASC
Racha de viento máxima en m/sg (hora)
DESCASC
Velocidad máxima media en intervalos de 10 minutos(hora)
DESCASC
Precipitaciones diarias en mm
DESCASC
Precipitaciones de 00:00 a 06:00 en mm
DESCASC
Precipitaciones de 06:00 a 12:00 en mm
DESCASC
Precipitaciones de 12:00 a 18:00 en mm
DESCASC
Precipitaciones de 18:00 a 24:00 en mm
DESCASC
03-12-2020 6 (13:40) 0.6 (03:00) 3.3 14.17 (19:50) 5.83 (21:20) 9.8 0 0 0.2 9.6
02-12-2020 7 (15:40) 1.3 (23:50) 4.1 7.5 (14:20) 3.89 (14:40) 0 0 0 0 0
01-12-2020 13.6 (11:20) 4.4 (23:59) 9 5 (04:50) 1.94 (12:10) 0 0 0 0 0
30-11-2020 13.7 (13:00) 7.1 (00:00) 10.4 6.67 (05:10) 4.44 (12:10) 0 0 0 0 0
29-11-2020 10.5 (16:10) 5.9 (00:00) 8.2 14.17 (05:20) 7.5 (01:20) 0 0 0 0 0
28-11-2020 11.2 (14:20) 6.2 (00:00) 8.7 11.67 (23:40) 6.39 (19:40) 0 0 0 0 0
27-11-2020 11.8 (14:50) 6.8 (00:00) 9.3 10.28 (13:20) 6.94 (11:00) 0 0 0 0 0
26-11-2020 9.5 (16:10) 5.9 (00:00) 7.7 14.17 (14:50) 8.89 (14:50) 0.8 0.8 0 0 0
25-11-2020 7.9 (00:00) 4.4 (00:00) 6.2 10.28 (00:20) 5.83 (23:20) 12.6 6.8 1 2.8 2
24-11-2020 11 (14:40) 7 (00:00) 9 9.72 (22:00) 5.83 (23:59) 0 0 0 0 0
23-11-2020 16 (16:10) 6.4 (00:00) 11.2 4.17 (23:30) 2.22 (22:20) 0 0 0 0 0
22-11-2020 15.5 (11:00) 7.8 (00:00) 11.7 4.72 (16:00) 2.78 (18:40) 0 0 0 0 0
21-11-2020 17.7 (16:10) 8.2 (00:00) 13 11.67 (11:10) 7.78 (10:10) 0 0 0 0 0
20-11-2020 13.4 (13:10) 5.1 (00:00) 9.2 3.06 (10:30) 1.67 (13:20) 0 0 0 0 0
19-11-2020 15.4 (14:20) 6 (00:00) 10.7 5.83 (16:30) 2.78 (16:40) 0 0 0 0 0
18-11-2020 17.2 (15:40) 10.1 (00:00) 13.7 12.5 (11:50) 6.67 (12:10) 0 0 0 0 0
17-11-2020 17 (14:20) 9.3 (00:00) 13.2 12.22 (19:30) 5.56 (16:20) 0 0 0 0 0
16-11-2020 15.5 (16:00) 4.5 (00:00) 10 4.17 (13:10) 2.5 (13:10) 0 0 0 0 0
15-11-2020 13.4 (12:30) 7.3 (00:00) 10.3 15.28 (15:10) 5.28 (05:30) 15.4 0.4 5.6 7.2 2.2
14-11-2020 12.5 (15:00) 7.6 (00:00) 10 16.94 (09:30) 8.33 (08:30) 0.2 0 0 0 0.2
13-11-2020 14.3 (15:10) 7.6 (00:00) 11 15.83 (22:50) 7.22 (22:20) 0.2 0 0.2 0 0
12-11-2020 14.9 (16:20) 8 (00:00) 11.4 10.28 (23:00) 5.83 (23:00) 0.2 0.2 0 0 0
11-11-2020 10.1 (11:00) 5.5 (00:00) 7.8 13.06 (08:50) 6.94 (12:00) 0 0 0 0 0
10-11-2020 13.2 (16:20) 4.2 (00:00) 8.7 8.61 (20:10) 4.17 (20:10) 0.2 0 0.2 0 0
09-11-2020 11 (14:40) 6.5 (00:00) 8.8 6.11 (06:00) 3.61 (05:50) 3 0.2 1.6 1.2 0
08-11-2020 12.5 (14:50) 8.1 (00:00) 10.3 16.39 (07:10) 7.5 (06:30) 3.6 0.8 0.2 0 2.6
07-11-2020 13 (12:30) 8.5 (00:00) 10.8 16.11 (01:40) 8.33 (01:40) 2 0 0 1.4 0.6
06-11-2020 12.9 (14:20) 8.8 (00:00) 10.8 21.11 (14:00) 13.61 (14:10) 6.4 1 0.6 0.2 4.6
05-11-2020 10.9 (13:00) 3.9 (00:00) 7.4 15.28 (06:30) 8.89 (06:30) 0.2 0 0 0 0.2

Gráficas

Temp. máximas Temp. mínimas Temp. medias Precipitaciones Rachas de viento máximas Velocidades máximas media en intervalos de 10 minutos

Datos horarios

Fecha y hora oficial Temperatura (ºC) Velocidad del viento (km/h) Dirección del viento Racha (km/h) Dirección de racha Precipitación (mm) Presión (hPa) Tendencia (hPa) Humedad (%)
2020-12-04 23:00:00 -1.7 4 Noroeste 14 Noroeste 0.6 -- -- 92
2020-12-04 22:00:00 -1.7 9 Norte 20 Noroeste 1.8 -- -- 91
2020-12-04 21:00:00 -1.4 8 Norte 22 Noroeste 0.4 -- -- 91
2020-12-04 20:00:00 -1.5 9 Noroeste 23 Noroeste 0.6 -- -- 91
2020-12-04 19:00:00 -1.4 9 Norte 21 Norte 2.8 -- -- 91
2020-12-04 18:00:00 -1.4 6 Norte 26 Noroeste 0.2 -- -- 91
2020-12-04 17:00:00 -1.1 7 Nordeste 28 Noroeste 0 -- -- 90
2020-12-04 16:00:00 -0.8 10 Norte 25 Norte 0.2 -- -- 89
2020-12-04 15:00:00 -0.8 10 Norte 26 Norte 2.6 -- -- 89
2020-12-04 14:00:00 -0.9 10 Norte 24 Norte 2.2 -- -- 89
2020-12-04 13:00:00 -1.4 7 Norte 28 Norte 2.8 -- -- 90
2020-12-04 12:00:00 -0.7 8 Nordeste 24 Norte 0.6 -- -- 89
2020-12-04 11:00:00 -1.3 9 Norte 26 Norte 0.2 -- -- 90
2020-12-04 10:00:00 -1.5 6 Nordeste 31 Norte 1.8 -- -- 91
2020-12-04 09:00:00 -1.5 11 Norte 32 Norte 0.6 -- -- 91
2020-12-04 08:00:00 -1.6 7 Nordeste 29 Norte 1.2 -- -- 91
2020-12-04 07:00:00 -1.7 4 Sur 19 Norte 2.8 -- -- 91
2020-12-04 06:00:00 -1.4 10 Norte 30 Norte 0.6 -- -- 89
2020-12-04 05:00:00 -1.1 6 Este 39 Norte 0.6 -- -- 89
2020-12-04 04:00:00 -0.6 8 Nordeste 36 Noroeste 0.4 -- -- 89
2020-12-04 03:00:00 -0.3 12 Norte 35 Norte 0.8 -- -- 89
2020-12-04 02:00:00 -0.2 8 Este 39 Norte 0.4 -- -- 88
2020-12-04 01:00:00 0.7 17 Norte 42 Nordeste 0.8 -- -- 87
2020-12-04 00:00:00 1.2 7 Nordeste 43 Norte 1.2 -- -- 87
2020-12-03 23:00:00 2.4 9 Este 36 Norte 3 -- -- 88
2020-12-03 22:00:00 3.8 12 Nordeste 51 Noroeste 4.4 -- -- 87
2020-12-03 21:00:00 4.7 13 Nordeste 50 Norte 0.4 -- -- 82
2020-12-03 20:00:00 4.9 15 Nordeste 51 Noroeste 0.4 -- -- 83
2020-12-03 19:00:00 4.5 10 Sudeste 48 Noroeste 0.2 -- -- 82
2020-12-03 18:00:00 4.3 11 Nordeste 38 Noroeste 0.2 -- -- 83
2020-12-03 17:00:00 4.9 8 Nordeste 38 Sudoeste 0 -- -- 81
2020-12-03 16:00:00 5.3 14 Sur 39 Sudoeste 0 -- -- 75
2020-12-03 15:00:00 4.4 14 Sur 49 Sudoeste 0 -- -- 80
2020-12-03 14:00:00 5.4 12 Sudoeste 30 Sudoeste 0 -- -- 70
2020-12-03 13:00:00 5.3 6 Sudeste 18 Sur 0 -- -- 72
2020-12-03 12:00:00 4.2 3 Sudeste 9 Sur 0 -- -- 78
2020-12-03 11:00:00 3.4 2 Sudeste 10 Sudeste 0 -- -- 77
2020-12-03 10:00:00 3.9 3 Sur 13 Norte 0 -- -- 70
2020-12-03 09:00:00 3 5 Noroeste 14 Norte 0 -- -- 72
2020-12-03 08:00:00 1.5 2 Noroeste 7 Nordeste 0 -- -- 79
2020-12-03 07:00:00 1.3 2 Norte 10 Nordeste 0 -- -- 78
2020-12-03 06:00:00 3.1 4 Noroeste 8 Noroeste 0 -- -- 73
2020-12-03 05:00:00 0.8 0 Calma 8 Norte 0 -- -- 85
2020-12-03 04:00:00 0.9 0 Calma 10 Norte 0 -- -- 79
2020-12-03 03:00:00 0.6 0 Calma 5 Oeste 0 -- -- 80
2020-12-03 02:00:00 1.9 2 Nordeste 8 Noroeste 0 -- -- 73
2020-12-03 01:00:00 0.8 2 Norte 6 Norte 0 -- -- 84
2020-12-03 00:00:00 1.3 3 Norte 6 Norte 0 -- -- 82
2020-12-02 23:00:00 1.4 3 Norte 6 Norte 0 -- -- 82
2020-12-02 22:00:00 1.8 0 Calma 8 Norte 0 -- -- 83
2020-12-02 21:00:00 2.2 5 Nordeste 12 Norte 0 -- -- 83
2020-12-02 20:00:00 2 6 Norte 17 Norte 0 -- -- 82
2020-12-02 19:00:00 3.2 6 Norte 10 Norte 0 -- -- 73
2020-12-02 18:00:00 3.5 6 Norte 14 Este 0 -- -- 74
2020-12-02 17:00:00 4.1 8 Norte 25 Norte 0 -- -- 72
2020-12-02 16:00:00 5.7 9 Norte 23 Norte 0 -- -- 65
2020-12-02 15:00:00 5.9 10 Norte 27 Nordeste 0 -- -- 65
2020-12-02 14:00:00 3.9 7 Norte 17 Norte 0 -- -- 69
2020-12-02 13:00:00 4.3 3 Este 18 Norte 0 -- -- 69
2020-12-02 12:00:00 3.1 9 Norte 22 Nordeste 0 -- -- 81
2020-12-02 11:00:00 3.9 5 Norte 12 Nordeste 0 -- -- 76
2020-12-02 10:00:00 3.2 3 Noroeste 13 Norte 0 -- -- 89
2020-12-02 09:00:00 3.5 6 Norte 15 Norte 0 -- -- 90
2020-12-02 08:00:00 4 6 Norte 19 Norte 0 -- -- 90
2020-12-02 07:00:00 4.3 8 Norte 17 Norte 0 -- -- 91
2020-12-02 06:00:00 4.6 8 Norte 14 Noroeste 0 -- -- 90
2020-12-02 05:00:00 3.7 3 Sudeste 16 Nordeste 0 -- -- 86
2020-12-02 04:00:00 4.6 5 Norte 13 Nordeste 0 -- -- 77
2020-12-02 03:00:00 5.5 4 Norte 19 Norte 0 -- -- 75
2020-12-02 02:00:00 5.1 3 Norte 9 Norte 0 -- -- 71
2020-12-02 01:00:00 4.6 3 Norte 8 Noroeste 0 -- -- 72
2020-12-02 00:00:00 4.4 4 Noroeste 11 Noroeste 0 -- -- 67
2020-12-01 23:00:00 5.4 3 Oeste 15 Norte 0 -- -- 62
2020-12-01 22:00:00 5.2 2 Nordeste 14 Norte 0 -- -- 62
2020-12-01 21:00:00 4.8 0 Calma 3 Oeste 0 -- -- 72
2020-12-01 20:00:00 5.5 0 Calma 6 Nordeste 0 -- -- 68
2020-12-01 19:00:00 5.8 0 Calma 5 Nordeste 0 -- -- 69
2020-12-01 18:00:00 6.9 0 Calma 6 Noroeste 0 -- -- 64
2020-12-01 17:00:00 9.1 3 Nordeste 8 Noroeste 0 -- -- 57
2020-12-01 16:00:00 10 3 Sur 6 Sur 0 -- -- 56
2020-12-01 15:00:00 10.7 2 Sur 6 Sur 0 -- -- 54
2020-12-01 14:00:00 11.6 3 Sur 8 Sur 0 -- -- 51
2020-12-01 13:00:00 11.7 4 Sur 12 Sur 0 -- -- 42
2020-12-01 12:00:00 12.3 5 Sur 9 Sur 0 -- -- 43
2020-12-01 11:00:00 13.2 3 Sur 9 Sudeste 0 -- -- 37
2020-12-01 10:00:00 12.5 0 Calma 5 Sur 0 -- -- 43
2020-12-01 09:00:00 8.2 0 Calma 7 Norte 0 -- -- 44
2020-12-01 08:00:00 7.1 0 Calma 9 Sur 0 -- -- 55
2020-12-01 07:00:00 8.2 3 Oeste 13 Oeste 0 -- -- 49
2020-12-01 06:00:00 8.6 4 Sudoeste 15 Sudeste 0 -- -- 52
2020-12-01 05:00:00 8.8 3 Noroeste 18 Sur 0 -- -- 50
2020-12-01 04:00:00 7.8 2 Sur 7 Sudoeste 0 -- -- 54
2020-12-01 03:00:00 7.4 2 Este 6 Noroeste 0 -- -- 53
2020-12-01 02:00:00 7.9 2 Norte 8 Sur 0 -- -- 54
2020-12-01 01:00:00 8.5 5 Sudoeste 12 Sur 0 -- -- 53
2020-12-01 00:00:00 8.7 2 Este 14 Oeste 0 -- -- 52
2020-11-30 23:00:00 8.9 3 Norte 8 Norte 0 -- -- 48
2020-11-30 22:00:00 7.7 0 Calma 5 Este 0 -- -- 65
2020-11-30 21:00:00 7.2 3 Noroeste 5 Noroeste 0 -- -- 68
2020-11-30 20:00:00 8.2 0 Calma 5 Noroeste 0 -- -- 63
2020-11-30 19:00:00 8 2 Norte 8 Norte 0 -- -- 63
2020-11-30 18:00:00 9.8 0 Calma 11 Sur 0 -- -- 55
2020-11-30 17:00:00 11.8 5 Sur 19 Sur 0 -- -- 47
2020-11-30 16:00:00 12.6 13 Sur 21 Sur 0 -- -- 44
2020-11-30 15:00:00 12.6 11 Sur 19 Sur 0 -- -- 45
2020-11-30 14:00:00 13.1 13 Sur 22 Sur 0 -- -- 46
2020-11-30 13:00:00 13.7 12 Sur 23 Sur 0 -- -- 45
2020-11-30 12:00:00 12.5 15 Sur 24 Sur 0 -- -- 48
2020-11-30 11:00:00 12.3 9 Sur 18 Sur 0 -- -- 49
2020-11-30 10:00:00 11.7 5 Sur 15 Sur 0 -- -- 50
2020-11-30 09:00:00 7.7 3 Oeste 12 Noroeste 0 -- -- 64
2020-11-30 08:00:00 7.6 3 Sudoeste 9 Oeste 0 -- -- 62
2020-11-30 07:00:00 7.4 0 Calma 8 Sudoeste 0 -- -- 63
2020-11-30 06:00:00 7.8 4 Sur 24 Sur 0 -- -- 62
2020-11-30 05:00:00 7.9 10 Sur 23 Sur 0 -- -- 63
2020-11-30 04:00:00 7.1 4 Sur 9 Sur 0 -- -- 69
2020-11-30 03:00:00 8.1 3 Sudeste 9 Oeste 0 -- -- 61
2020-11-30 02:00:00 8.5 4 Sudeste 22 Sur 0 -- -- 59
2020-11-30 01:00:00 8.2 7 Sudoeste 16 Oeste 0 -- -- 62
2020-11-30 00:00:00 7.5 4 Sudoeste 22 Sur 0 -- -- 68
2020-11-29 23:00:00 8.5 12 Sur 32 Sur 0 -- -- 63
2020-11-29 22:00:00 8.4 21 Sur 33 Sur 0 -- -- 66
2020-11-29 21:00:00 7.9 11 Sur 22 Sur 0 -- -- 70
2020-11-29 20:00:00 7.8 9 Sur 20 Sur 0 -- -- 72
2020-11-29 19:00:00 7.8 8 Sur 15 Sur 0 -- -- 71
2020-11-29 18:00:00 8.5 4 Sudeste 20 Sudeste 0 -- -- 67
2020-11-29 17:00:00 9.7 8 Sur 20 Sur 0 -- -- 62
2020-11-29 16:00:00 10.3 13 Sur 23 Sur 0 -- -- 59
2020-11-29 15:00:00 10.4 13 Sur 27 Sur 0 -- -- 60
2020-11-29 14:00:00 9.5 14 Sur 35 Sur 0 -- -- 64
2020-11-29 13:00:00 8.7 14 Sur 28 Sur 0 -- -- 66
2020-11-29 12:00:00 8.2 18 Sur 36 Sur 0 -- -- 70
2020-11-29 11:00:00 7.6 23 Sur 36 Sur 0 -- -- 71
2020-11-29 10:00:00 7 20 Sur 39 Sudoeste 0 -- -- 75
2020-11-29 09:00:00 6.3 18 Sur 36 Sur 0 -- -- 76
2020-11-29 08:00:00 6.3 16 Sur 31 Sur 0 -- -- 75
2020-11-29 07:00:00 6.2 6 Sur 37 Sur 0 -- -- 74
2020-11-29 06:00:00 6.5 27 Sur 51 Sur 0 -- -- 76
2020-11-29 05:00:00 6.5 18 Sur 44 Sur 0 -- -- 74
2020-11-29 04:00:00 6.6 24 Sur 40 Sur 0 -- -- 74
2020-11-29 03:00:00 7 25 Sur 41 Sur 0 -- -- 72
2020-11-29 02:00:00 7 23 Sur 43 Sur 0 -- -- 73
2020-11-29 01:00:00 6.8 22 Sur 35 Sur 0 -- -- 75
2020-11-29 00:00:00 7.1 14 Sur 42 Sur 0 -- -- 73
2020-11-28 23:00:00 7 17 Sudoeste 32 Sur 0 -- -- 75
2020-11-28 22:00:00 7.3 17 Sur 28 Sur 0 -- -- 71
2020-11-28 21:00:00 7.5 11 Sur 28 Sur 0 -- -- 69
2020-11-28 20:00:00 8.3 21 Sur 37 Sur 0 -- -- 65
2020-11-28 19:00:00 8.1 13 Sur 26 Sur 0 -- -- 67
2020-11-28 18:00:00 8.3 10 Sur 22 Sur 0 -- -- 66
2020-11-28 17:00:00 9 12 Sur 20 Sur 0 -- -- 65
2020-11-28 16:00:00 10.4 13 Sur 28 Sudoeste 0 -- -- 60
2020-11-28 15:00:00 9.8 14 Sur 33 Sur 0 -- -- 56
2020-11-28 14:00:00 10.9 18 Sur 35 Sur 0 -- -- 57
2020-11-28 13:00:00 10.5 15 Sur 33 Sur 0 -- -- 57
2020-11-28 12:00:00 10 15 Sur 31 Sur 0 -- -- 61
2020-11-28 11:00:00 9.6 18 Sur 38 Sur 0 -- -- 66
2020-11-28 10:00:00 8.5 20 Sur 37 Sur 0 -- -- 68
2020-11-28 09:00:00 6.9 17 Sur 33 Sur 0 -- -- 74
2020-11-28 08:00:00 6.3 13 Sur 30 Sur 0 -- -- 77
2020-11-28 07:00:00 6.5 13 Sur 28 Sudeste 0 -- -- 78
2020-11-28 06:00:00 6.5 15 Sur 26 Sur 0 -- -- 78
2020-11-28 05:00:00 6.8 10 Sur 27 Sur 0 -- -- 77
2020-11-28 04:00:00 7.1 15 Sur 31 Sur 0 -- -- 76
2020-11-28 03:00:00 7.5 9 Sudoeste 27 Sur 0 -- -- 73
2020-11-28 02:00:00 7.8 17 Sur 35 Sur 0 -- -- 73
2020-11-28 01:00:00 8.3 14 Sur 32 Sur 0 -- -- 70
2020-11-28 00:00:00 8.4 15 Sur 28 Sur 0 -- -- 69
2020-11-27 23:00:00 8.4 5 Sudeste 21 Sur 0 -- -- 69
2020-11-27 22:00:00 8.5 10 Sur 24 Sur 0 -- -- 68
2020-11-27 21:00:00 7.1 5 Sur 13 Sur 0 -- -- 74
2020-11-27 20:00:00 7.5 5 Sur 15 Sur 0 -- -- 73
2020-11-27 19:00:00 8 8 Sur 19 Sur 0 -- -- 72
2020-11-27 18:00:00 9.1 8 Sur 26 Sur 0 -- -- 68
2020-11-27 17:00:00 9.6 12 Sur 26 Sur 0 -- -- 65
2020-11-27 16:00:00 10.3 14 Sur 24 Sur 0 -- -- 62
2020-11-27 15:00:00 11.7 18 Sur 33 Sur 0 -- -- 61
2020-11-27 14:00:00 10.6 17 Sur 37 Sur 0 -- -- 65
2020-11-27 13:00:00 10.5 19 Sur 37 Sur 0 -- -- 65
2020-11-27 12:00:00 8.6 23 Sur 37 Sur 0 -- -- 73
2020-11-27 11:00:00 8 25 Sur 36 Sudoeste 0 -- -- 75
2020-11-27 10:00:00 8.7 21 Sur 32 Sur 0 -- -- 73
2020-11-27 09:00:00 7 14 Sur 32 Sur 0 -- -- 80
2020-11-27 08:00:00 7 18 Sur 30 Sur 0 -- -- 79
2020-11-27 07:00:00 7.1 14 Sur 33 Sur 0 -- -- 78
2020-11-27 06:00:00 7.4 21 Sur 33 Sur 0 -- -- 79
2020-11-27 05:00:00 7.2 16 Sur 26 Sur 0 -- -- 78
2020-11-27 04:00:00 7.6 15 Sur 28 Sur 0 -- -- 75
2020-11-27 03:00:00 7.5 12 Sur 23 Sur 0 -- -- 76
2020-11-27 02:00:00 7.6 13 Sur 26 Sur 0 -- -- 77
2020-11-27 01:00:00 8 12 Sur 26 Sur 0 -- -- 76
2020-11-27 00:00:00 8.5 10 Sur 22 Sur 0 -- -- 72
2020-11-26 23:00:00 9 8 Sur 26 Sudeste 0 -- -- 69
2020-11-26 22:00:00 9.1 9 Sur 29 Sur 0 -- -- 68
2020-11-26 21:00:00 9 9 Sur 28 Sur 0 -- -- 66
2020-11-26 20:00:00 8.1 4 Sudeste 22 Sudeste 0 -- -- 69
2020-11-26 19:00:00 8.7 8 Sudeste 24 Sudeste 0 -- -- 66
2020-11-26 18:00:00 7.6 4 Sudeste 17 Sudeste 0 -- -- 73
2020-11-26 17:00:00 8.4 6 Sur 22 Sur 0 -- -- 71
2020-11-26 16:00:00 9.2 4 Sur 32 Sur 0 -- -- 68
2020-11-26 15:00:00 8.4 27 Sur 51 Sur 0 -- -- 72
2020-11-26 14:00:00 8.7 21 Sur 37 Sur 0 -- -- 72
2020-11-26 13:00:00 7.6 13 Sur 37 Sur 0 -- -- 76
2020-11-26 12:00:00 7.4 13 Sur 33 Sur 0 -- -- 78
2020-11-26 11:00:00 7.5 24 Sur 42 Sur 0 -- -- 78
2020-11-26 10:00:00 7.3 18 Sur 37 Sur 0 -- -- 80
2020-11-26 09:00:00 7 14 Sur 34 Sudeste 0 -- -- 82
2020-11-26 08:00:00 6.8 17 Sur 31 Sur 0 -- -- 84
2020-11-26 07:00:00 6.4 12 Sur 22 Sur 0 -- -- 86
2020-11-26 06:00:00 6.2 4 Sudeste 16 Sur 0 -- -- 86
2020-11-26 05:00:00 6.1 6 Sudeste 19 Sur 0 -- -- 86
2020-11-26 04:00:00 6.2 6 Sur 22 Sur 0 -- -- 85
2020-11-26 03:00:00 6.1 12 Sur 30 Sur 0 -- -- 85
2020-11-26 02:00:00 6.1 16 Sur 31 Sur 0.4 -- -- 85
2020-11-26 01:00:00 6 20 Sur 32 Sur 0.4 -- -- 86
2020-11-26 00:00:00 5.9 19 Sur 37 Sur 0.2 -- -- 85
2020-11-25 23:00:00 5.5 17 Sur 32 Sudoeste 0.2 -- -- 86
2020-11-25 22:00:00 5.1 19 Sur 31 Sur 0.6 -- -- 86
2020-11-25 21:00:00 4.7 15 Sur 24 Sudoeste 0.6 -- -- 86
2020-11-25 20:00:00 4.5 14 Sur 27 Sur 0.4 -- -- 84
2020-11-25 19:00:00 4.6 13 Sur 24 Sur 0 -- -- 82
2020-11-25 18:00:00 4.5 15 Sur 27 Sur 0 -- -- 82
2020-11-25 17:00:00 4.5 17 Sur 28 Sur 0.4 -- -- 83
2020-11-25 16:00:00 4.4 10 Sur 21 Sur 1.4 -- -- 85
2020-11-25 15:00:00 4.9 10 Sudoeste 31 Sur 0.6 -- -- 84
2020-11-25 14:00:00 5.3 14 Sur 26 Sur 0.4 -- -- 87
2020-11-25 13:00:00 5.3 14 Sur 30 Sur 0 -- -- 87
2020-11-25 12:00:00 5.7 13 Sur 23 Sur 0 -- -- 86
2020-11-25 11:00:00 5.8 12 Sur 30 Sur 0 -- -- 86
2020-11-25 10:00:00 5.8 14 Sur 28 Sur 0 -- -- 85
2020-11-25 09:00:00 5.4 10 Sudoeste 24 Sudoeste 0 -- -- 87
2020-11-25 08:00:00 5 14 Sur 27 Sur 0.6 -- -- 89
2020-11-25 07:00:00 5.1 12 Sur 24 Sudoeste 0.4 -- -- 88
2020-11-25 06:00:00 5.3 8 Sur 24 Sur 0.4 -- -- 88
2020-11-25 05:00:00 5.5 10 Sur 30 Sudoeste 0.6 -- -- 84
2020-11-25 04:00:00 5.7 11 Sudoeste 30 Sudoeste 0.8 -- -- 83
2020-11-25 03:00:00 6.1 12 Sur 24 Sur 1.8 -- -- 87
2020-11-25 02:00:00 6.3 7 Sur 21 Sur 2 -- -- 88
2020-11-25 01:00:00 6.7 13 Sur 37 Sur 1.2 -- -- 83
2020-11-25 00:00:00 7.9 21 Sur 33 Sur 0 -- -- 73
2020-11-24 23:00:00 7.7 16 Sur 28 Sur 0 -- -- 74
2020-11-24 22:00:00 8 17 Sur 35 Sur 0 -- -- 73
2020-11-24 21:00:00 7.7 15 Sur 33 Sur 0 -- -- 71
2020-11-24 20:00:00 7.8 18 Sur 28 Sur 0 -- -- 70
2020-11-24 19:00:00 8.2 14 Sur 33 Sudeste 0 -- -- 67
2020-11-24 18:00:00 8.5 12 Sudoeste 27 Sudoeste 0 -- -- 66
2020-11-24 17:00:00 8.6 14 Sur 21 Sur 0 -- -- 67
2020-11-24 16:00:00 9.8 12 Sur 27 Sur 0 -- -- 61
2020-11-24 15:00:00 10 13 Sur 23 Sur 0 -- -- 61
2020-11-24 14:00:00 10 12 Sur 22 Sur 0 -- -- 60
2020-11-24 13:00:00 9 15 Sur 28 Sur 0 -- -- 63
2020-11-24 12:00:00 9.1 10 Sur 27 Sudoeste 0 -- -- 61
2020-11-24 11:00:00 8.4 10 Sudoeste 24 Oeste 0 -- -- 65
2020-11-24 10:00:00 8.8 9 Oeste 18 Oeste 0 -- -- 55
2020-11-24 09:00:00 7.3 10 Oeste 17 Sudoeste 0 -- -- 56
2020-11-24 08:00:00 7.2 8 Oeste 16 Oeste 0 -- -- 55
2020-11-24 07:00:00 7.8 4 Sur 23 Sur 0 -- -- 53
2020-11-24 06:00:00 8 13 Sudoeste 22 Sudoeste 0 -- -- 53
2020-11-24 05:00:00 8.6 12 Sudoeste 24 Sudoeste 0 -- -- 50
2020-11-24 04:00:00 9.2 12 Sudoeste 31 Oeste 0 -- -- 47
2020-11-24 03:00:00 8.6 3 Noroeste 19 Oeste 0 -- -- 47
2020-11-24 02:00:00 9.6 10 Sudoeste 27 Sudoeste 0 -- -- 53
2020-11-24 01:00:00 10.1 14 Sudoeste 24 Sudoeste 0 -- -- 55
2020-11-24 00:00:00 10 6 Sudoeste 15 Sur 0 -- -- 56
2020-11-23 23:00:00 10.2 5 Sudoeste 14 Oeste 0 -- -- 52
2020-11-23 22:00:00 10 4 Sudoeste 12 Sudoeste 0 -- -- 51
2020-11-23 21:00:00 9.7 2 Noroeste 5 Noroeste 0 -- -- 57
2020-11-23 20:00:00 9.9 3 Norte 5 Norte 0 -- -- 55
2020-11-23 19:00:00 10.1 0 Calma 4 Norte 0 -- -- 56
2020-11-23 18:00:00 11 3 Norte 5 Norte 0 -- -- 54
2020-11-23 17:00:00 12.1 0 Calma 4 Sudoeste 0 -- -- 51
2020-11-23 16:00:00 15.9 3 Oeste 9 Sur 0 -- -- 41
2020-11-23 15:00:00 15.5 7 Sur 13 Sur 0 -- -- 42
2020-11-23 14:00:00 15.2 4 Sur 12 Sur 0 -- -- 43
2020-11-23 13:00:00 14.5 6 Sur 12 Sur 0 -- -- 44
2020-11-23 12:00:00 15.7 3 Sur 9 Sur 0 -- -- 43
2020-11-23 11:00:00 14.8 3 Sudoeste 6 Sur 0 -- -- 46
2020-11-23 10:00:00 13.3 0 Calma 8 Nordeste 0 -- -- 45
2020-11-23 09:00:00 7.7 3 Este 10 Nordeste 0 -- -- 60
2020-11-23 08:00:00 6.6 4 Este 7 Nordeste 0 -- -- 63
2020-11-23 07:00:00 7.2 2 Este 8 Este 0 -- -- 60
2020-11-23 06:00:00 7 3 Este 10 Nordeste 0 -- -- 62
2020-11-23 05:00:00 7.9 0 Calma 6 Noroeste 0 -- -- 59
2020-11-23 04:00:00 8.1 5 Noroeste 8 Noroeste 0 -- -- 59
2020-11-23 03:00:00 7.8 2 Norte 4 Noroeste 0 -- -- 61
2020-11-23 02:00:00 8.1 2 Norte 4 Noroeste 0 -- -- 59
2020-11-23 01:00:00 8.1 0 Calma 5 Norte 0 -- -- 60
2020-11-23 00:00:00 8.3 0 Calma 4 Noroeste 0 -- -- 57
2020-11-22 23:00:00 8.1 2 Norte 4 Nordeste 0 -- -- 57
2020-11-22 22:00:00 8.4 7 Norte 12 Noroeste 0 -- -- 55
2020-11-22 21:00:00 8.8 5 Norte 9 Noroeste 0 -- -- 53
2020-11-22 20:00:00 8.9 7 Norte 12 Norte 0 -- -- 51
2020-11-22 19:00:00 9.6 9 Norte 13 Norte 0 -- -- 53
2020-11-22 18:00:00 9.9 8 Norte 15 Norte 0 -- -- 52
2020-11-22 17:00:00 11.2 8 Norte 15 Norte 0 -- -- 49
2020-11-22 16:00:00 14.2 6 Norte 17 Noroeste 0 -- -- 42
2020-11-22 15:00:00 15 4 Sudoeste 9 Sur 0 -- -- 42
2020-11-22 14:00:00 14.9 4 Oeste 10 Sur 0 -- -- 39
2020-11-22 13:00:00 14.6 4 Sudeste 10 Sur 0 -- -- 36
2020-11-22 12:00:00 14.6 5 Sur 9 Sur 0 -- -- 37
2020-11-22 11:00:00 15.5 4 Sudoeste 7 Sur 0 -- -- 36
2020-11-22 10:00:00 14.3 2 Sur 5 Sur 0 -- -- 36
2020-11-22 09:00:00 10.6 0 Calma 5 Noroeste 0 -- -- 39
2020-11-22 08:00:00 9.9 0 Calma 6 Norte 0 -- -- 39
2020-11-22 07:00:00 9.8 4 Norte 8 Norte 0 -- -- 43
2020-11-22 06:00:00 9.3 0 Calma 6 Norte 0 -- -- 42
2020-11-22 05:00:00 10.8 4 Noroeste 9 Norte 0 -- -- 39
2020-11-22 04:00:00 10.4 3 Noroeste 6 Nordeste 0 -- -- 37
2020-11-22 03:00:00 10.9 2 Oeste 12 Sur 0 -- -- 34
2020-11-22 02:00:00 10.4 6 Sudoeste 13 Sudoeste 0 -- -- 35
2020-11-22 01:00:00 11.5 4 Sudoeste 10 Sur 0 -- -- 32
2020-11-22 00:00:00 11.4 3 Noroeste 6 Noroeste 0 -- -- 33
2020-11-21 23:00:00 10.2 0 Calma 4 Noroeste 0 -- -- 43
2020-11-21 22:00:00 11.5 4 Norte 6 Norte 0 -- -- 38
2020-11-21 21:00:00 11.3 3 Norte 5 Noroeste 0 -- -- 40
2020-11-21 20:00:00 11.8 0 Calma 4 Sudeste 0 -- -- 36
2020-11-21 19:00:00 13 0 Calma 12 Sur 0 -- -- 32
2020-11-21 18:00:00 13.6 6 Sudoeste 20 Sur 0 -- -- 31
2020-11-21 17:00:00 14.6 8 Sudoeste 17 Sur 0 -- -- 30
2020-11-21 16:00:00 17.4 8 Sudoeste 17 Sur 0 -- -- 30
2020-11-21 15:00:00 17 9 Sudoeste 24 Sudeste 0 -- -- 31
2020-11-21 14:00:00 16.5 12 Sur 30 Sur 0 -- -- 30
2020-11-21 13:00:00 15.7 21 Sur 33 Sur 0 -- -- 34
2020-11-21 12:00:00 15.1 20 Sur 42 Sur 0 -- -- 35
2020-11-21 11:00:00 14.4 23 Sur 40 Sur 0 -- -- 35
2020-11-21 10:00:00 13.4 27 Sur 38 Sur 0 -- -- 37
2020-11-21 09:00:00 10.5 5 Sur 19 Sur 0 -- -- 47
2020-11-21 08:00:00 10 3 Sur 8 Sur 0 -- -- 47
2020-11-21 07:00:00 10.3 0 Calma 7 Sudoeste 0 -- -- 45
2020-11-21 06:00:00 10.2 2 Este 19 Sur 0 -- -- 46
2020-11-21 05:00:00 8.8 4 Sudeste 13 Sur 0 -- -- 59
2020-11-21 04:00:00 10.8 2 Nordeste 9 Sudeste 0 -- -- 45
2020-11-21 03:00:00 9.7 2 Este 10 Sudoeste 0 -- -- 53
2020-11-21 02:00:00 8.4 3 Sudeste 9 Sur 0 -- -- 66
2020-11-21 01:00:00 8.8 3 Este 9 Sudeste 0 -- -- 64
2020-11-21 00:00:00 8.4 2 Sur 8 Sudoeste 0 -- -- 66
2020-11-20 23:00:00 9.2 2 Norte 10 Nordeste 0 -- -- 60
2020-11-20 22:00:00 9.6 4 Este 10 Sudoeste 0 -- -- 62
2020-11-20 21:00:00 8.9 3 Sudoeste 9 Noroeste 0 -- -- 69
2020-11-20 20:00:00 8.8 0 Calma 4 Este 0 -- -- 72
2020-11-20 19:00:00 9.2 0 Calma 4 Norte 0 -- -- 74
2020-11-20 18:00:00 9.6 0 Calma 4 Noroeste 0 -- -- 74
2020-11-20 17:00:00 9.9 0 Calma 5 Noroeste 0 -- -- 73
2020-11-20 16:00:00 12.7 3 Sudoeste 8 Sudoeste 0 -- -- 61
2020-11-20 15:00:00 12.8 3 Sur 9 Sur 0 -- -- 64
2020-11-20 14:00:00 12.8 5 Sur 10 Sur 0 -- -- 67
2020-11-20 13:00:00 13 4 Sur 10 Sudoeste 0 -- -- 64
2020-11-20 12:00:00 12 5 Sur 9 Sur 0 -- -- 73
2020-11-20 11:00:00 8.9 6 Sur 11 Sur 0 -- -- 90
2020-11-20 10:00:00 7.1 3 Sudeste 9 Sudoeste 0 -- -- 93
2020-11-20 09:00:00 5.7 3 Oeste 8 Noroeste 0 -- -- 93
2020-11-20 08:00:00 5.9 4 Noroeste 9 Noroeste 0 -- -- 93
2020-11-20 07:00:00 6 2 Oeste 8 Este 0 -- -- 93
2020-11-20 06:00:00 5.4 3 Este 5 Este 0 -- -- 93
2020-11-20 05:00:00 5.9 2 Sur 5 Sur 0 -- -- 93
2020-11-20 04:00:00 5.5 0 Calma 6 Este 0 -- -- 93
2020-11-20 03:00:00 5.5 0 Calma 6 Sudeste 0 -- -- 93
2020-11-20 02:00:00 5.4 3 Noroeste 7 Noroeste 0 -- -- 93
2020-11-20 01:00:00 5.8 3 Noroeste 8 Norte 0 -- -- 92
2020-11-20 00:00:00 6 5 Noroeste 8 Noroeste 0 -- -- 92
2020-11-19 23:00:00 6.2 5 Noroeste 8 Norte 0 -- -- 92
2020-11-19 22:00:00 6.9 3 Noroeste 8 Sudoeste 0 -- -- 91
2020-11-19 21:00:00 7.6 4 Noroeste 6 Oeste 0 -- -- 89
2020-11-19 20:00:00 8.2 5 Norte 9 Norte 0 -- -- 90
2020-11-19 19:00:00 8.5 0 Calma 9 Norte 0 -- -- 89
2020-11-19 18:00:00 9.2 2 Nordeste 19 Nordeste 0 -- -- 86
2020-11-19 17:00:00 11.3 9 Norte 21 Norte 0 -- -- 82
2020-11-19 16:00:00 15.2 4 Norte 15 Norte 0 -- -- 63
2020-11-19 15:00:00 15.3 5 Norte 15 Norte 0 -- -- 68
2020-11-19 14:00:00 15.1 3 Sur 9 Sur 0 -- -- 72
2020-11-19 13:00:00 14.6 5 Sudoeste 10 Sur 0 -- -- 72
2020-11-19 12:00:00 14.1 6 Sur 10 Sur 0 -- -- 74
2020-11-19 11:00:00 14 3 Sur 10 Norte 0 -- -- 87
2020-11-19 10:00:00 9 3 Sudoeste 6 Noroeste 0 -- -- 93
2020-11-19 09:00:00 8.7 2 Noroeste 5 Sudeste 0 -- -- 92
2020-11-19 08:00:00 8.6 0 Calma 8 Sudoeste 0 -- -- 92
2020-11-19 07:00:00 8.1 2 Noroeste 13 Norte 0 -- -- 92
2020-11-19 06:00:00 8.2 4 Noroeste 6 Noroeste 0 -- -- 91
2020-11-19 05:00:00 8.6 3 Noroeste 10 Norte 0 -- -- 90
2020-11-19 04:00:00 9.2 3 Sur 12 Noroeste 0 -- -- 89
2020-11-19 03:00:00 9.9 3 Norte 13 Norte 0 -- -- 87
2020-11-19 02:00:00 10.9 8 Norte 18 Norte 0 -- -- 84
2020-11-19 01:00:00 11.3 3 Noroeste 9 Oeste 0 -- -- 79
2020-11-19 00:00:00 10.9 3 Noroeste 7 Noroeste 0 -- -- 85
2020-11-18 23:00:00 11.4 5 Norte 11 Norte 0 -- -- 83
2020-11-18 22:00:00 12 4 Norte 13 Norte 0 -- -- 83
2020-11-18 21:00:00 12.8 6 Norte 13 Norte 0 -- -- 76
2020-11-18 20:00:00 14 6 Norte 12 Noroeste 0 -- -- 65
2020-11-18 19:00:00 13.8 5 Noroeste 11 Oeste 0 -- -- 59
2020-11-18 18:00:00 14.6 6 Oeste 18 Sudoeste 0 -- -- 60
2020-11-18 17:00:00 16 10 Sudoeste 17 Sudoeste 0 -- -- 54
2020-11-18 16:00:00 16.2 6 Sudoeste 20 Sur 0 -- -- 56
2020-11-18 15:00:00 16.7 13 Sur 28 Sur 0 -- -- 55
2020-11-18 14:00:00 16.6 13 Sur 35 Sur 0 -- -- 57
2020-11-18 13:00:00 15.6 18 Sur 42 Sur 0 -- -- 60
2020-11-18 12:00:00 14.6 21 Sur 45 Sur 0 -- -- 63
2020-11-18 11:00:00 14.2 19 Sur 37 Sur 0 -- -- 65
2020-11-18 10:00:00 13.3 11 Sudoeste 33 Sur 0 -- -- 68
2020-11-18 09:00:00 11.5 11 Sur 29 Sur 0 -- -- 75
2020-11-18 08:00:00 10.4 4 Noroeste 17 Sudoeste 0 -- -- 79
2020-11-18 07:00:00 11 6 Sudoeste 18 Sur 0 -- -- 77
2020-11-18 06:00:00 11.1 6 Sudeste 29 Sur 0 -- -- 75
2020-11-18 05:00:00 11.8 12 Sur 29 Sur 0 -- -- 69
2020-11-18 04:00:00 12.1 13 Sur 31 Sur 0 -- -- 65
2020-11-18 03:00:00 12.3 17 Sur 33 Sur 0 -- -- 63
2020-11-18 02:00:00 12.5 15 Sudoeste 34 Sur 0 -- -- 63
2020-11-18 01:00:00 11.7 9 Sur 21 Sur 0 -- -- 63
2020-11-18 00:00:00 10.2 4 Este 26 Sur 0 -- -- 68
2020-11-17 23:00:00 12.2 15 Sudoeste 34 Sur 0 -- -- 60
2020-11-17 22:00:00 12.8 14 Sur 35 Sur 0 -- -- 57
2020-11-17 21:00:00 12.9 10 Sur 29 Sur 0 -- -- 57
2020-11-17 20:00:00 13 10 Sudoeste 44 Sur 0 -- -- 57
2020-11-17 19:00:00 13.7 13 Sudoeste 26 Sudoeste 0 -- -- 54
2020-11-17 18:00:00 14.9 15 Sur 31 Sur 0 -- -- 47
2020-11-17 17:00:00 15 17 Sur 31 Sur 0 -- -- 47
2020-11-17 16:00:00 16.5 19 Sur 32 Sur 0 -- -- 40
2020-11-17 15:00:00 16.8 14 Sur 33 Sur 0 -- -- 37
2020-11-17 14:00:00 16.8 15 Sur 24 Sur 0 -- -- 35
2020-11-17 13:00:00 15.5 6 Sudeste 28 Sur 0 -- -- 46
2020-11-17 12:00:00 15.1 9 Sur 27 Sur 0 -- -- 43
2020-11-17 11:00:00 15.5 10 Sur 28 Sur 0 -- -- 37
2020-11-17 10:00:00 14.8 7 Sudoeste 26 Oeste 0 -- -- 34
2020-11-17 09:00:00 12.7 9 Sur 17 Sur 0 -- -- 38
2020-11-17 08:00:00 10.9 5 Sudoeste 19 Sudoeste 0 -- -- 44
2020-11-17 07:00:00 10.5 7 Sudoeste 16 Sur 0 -- -- 48
2020-11-17 06:00:00 10 3 Norte 20 Sur 0 -- -- 51
2020-11-17 05:00:00 10.6 8 Sur 24 Sur 0 -- -- 51
2020-11-17 04:00:00 9.9 4 Noroeste 9 Este 0 -- -- 54
2020-11-17 03:00:00 10.1 3 Noroeste 8 Sudoeste 0 -- -- 55
2020-11-17 02:00:00 9.9 3 Norte 8 Norte 0 -- -- 47
2020-11-17 01:00:00 9.9 3 Norte 6 Noroeste 0 -- -- 57
2020-11-17 00:00:00 10.3 3 Noroeste 8 Noroeste 0 -- -- 52
2020-11-16 23:00:00 10.5 3 Noroeste 7 Noroeste 0 -- -- 47
2020-11-16 22:00:00 10.3 3 Norte 9 Noroeste 0 -- -- 46
2020-11-16 21:00:00 10.8 4 Noroeste 9 Noroeste 0 -- -- 36
2020-11-16 20:00:00 9.1 0 Calma 6 Sudeste 0 -- -- 40
2020-11-16 19:00:00 9.8 3 Este 5 Sudeste 0 -- -- 45
2020-11-16 18:00:00 10.6 2 Nordeste 8 Norte 0 -- -- 42
2020-11-16 17:00:00 11.7 2 Sudoeste 9 Sur 0 -- -- 32
2020-11-16 16:00:00 15.5 3 Sudoeste 9 Sur 0 -- -- 34
2020-11-16 15:00:00 14.1 4 Sur 12 Sur 0 -- -- 49
2020-11-16 14:00:00 13 7 Sur 15 Sur 0 -- -- 56
2020-11-16 13:00:00 12.5 4 Sur 12 Sur 0 -- -- 61
2020-11-16 12:00:00 10.6 6 Sur 14 Sur 0 -- -- 71
2020-11-16 11:00:00 10.6 3 Sudoeste 8 Sur 0 -- -- 76
2020-11-16 10:00:00 7.1 3 Sur 5 Sur 0 -- -- 83
2020-11-16 09:00:00 5.5 3 Norte 9 Norte 0 -- -- 90
2020-11-16 08:00:00 4.9 3 Norte 5 Norte 0 -- -- 92
2020-11-16 07:00:00 4.6 0 Calma 7 Norte 0 -- -- 92
2020-11-16 06:00:00 5.5 2 Noroeste 8 Norte 0 -- -- 92
2020-11-16 05:00:00 5.7 2 Norte 6 Norte 0 -- -- 93
2020-11-16 04:00:00 6.5 2 Norte 6 Este 0 -- -- 93
2020-11-16 03:00:00 6.6 4 Nordeste 6 Nordeste 0 -- -- 93
2020-11-16 02:00:00 6.5 2 Este 10 Norte 0 -- -- 92
2020-11-16 01:00:00 7.2 4 Nordeste 6 Nordeste 0 -- -- 92
2020-11-16 00:00:00 7.3 4 Nordeste 10 Nordeste 0.2 -- -- 92
2020-11-15 23:00:00 7.8 5 Nordeste 14 Norte 0.2 -- -- 91
2020-11-15 22:00:00 8.5 2 Nordeste 8 Sudeste 0.6 -- -- 91
2020-11-15 21:00:00 8.7 4 Este 19 Nordeste 0.6 -- -- 90
2020-11-15 20:00:00 8.8 4 Nordeste 22 Norte 0.6 -- -- 90
2020-11-15 19:00:00 8.7 2 Sudeste 27 Norte 0 -- -- 87
2020-11-15 18:00:00 9 7 Este 28 Norte 1.4 -- -- 88
2020-11-15 17:00:00 9.9 5 Nordeste 24 Nordeste 1.4 -- -- 89
2020-11-15 16:00:00 10.1 9 Norte 55 Norte 1.4 -- -- 89
2020-11-15 15:00:00 11.9 10 Norte 39 Nordeste 3 -- -- 87
2020-11-15 14:00:00 13.2 15 Oeste 46 Oeste 0 -- -- 74
2020-11-15 13:00:00 13.1 15 Sudoeste 40 Oeste 0 -- -- 75
2020-11-15 12:00:00 12.9 16 Sudoeste 49 Sudoeste 0.2 -- -- 77
2020-11-15 11:00:00 12.6 9 Este 39 Oeste 0.8 -- -- 81
2020-11-15 10:00:00 12.1 8 Sudoeste 32 Oeste 2.2 -- -- 85
2020-11-15 09:00:00 12.1 13 Sudoeste 37 Sudeste 2 -- -- 84
2020-11-15 08:00:00 12.3 11 Sur 40 Sur 0.2 -- -- 82
2020-11-15 07:00:00 12.4 15 Sur 33 Sur 0.2 -- -- 82
2020-11-15 06:00:00 12.5 15 Sur 44 Sudoeste 0.2 -- -- 80
2020-11-15 05:00:00 12.4 18 Sudoeste 40 Sudoeste 0.2 -- -- 81
2020-11-15 04:00:00 12.7 9 Sudoeste 33 Oeste 0 -- -- 77
2020-11-15 03:00:00 12.7 12 Sudoeste 31 Sudoeste 0 -- -- 75
2020-11-15 02:00:00 11.4 11 Sur 28 Sur 0 -- -- 81
2020-11-15 01:00:00 10.9 17 Sur 28 Sur 0 -- -- 85
2020-11-15 00:00:00 10.1 14 Sur 31 Sur 0.2 -- -- 89
2020-11-14 23:00:00 10.5 15 Sur 29 Sur 0 -- -- 85
2020-11-14 22:00:00 11.3 14 Sur 36 Sur 0 -- -- 78
2020-11-14 21:00:00 11.9 16 Sur 32 Sur 0 -- -- 72
2020-11-14 20:00:00 11.8 13 Sur 30 Sur 0 -- -- 73
2020-11-14 19:00:00 11.2 11 Sur 25 Sur 0 -- -- 76
2020-11-14 18:00:00 11.2 11 Sur 22 Sudoeste 0 -- -- 76
2020-11-14 17:00:00 12 9 Sudoeste 34 Sur 0 -- -- 72
2020-11-14 16:00:00 12.2 11 Sur 28 Sur 0 -- -- 70
2020-11-14 15:00:00 12.5 16 Sur 35 Sur 0 -- -- 67
2020-11-14 14:00:00 11.2 17 Sur 33 Sur 0 -- -- 69
2020-11-14 13:00:00 10.6 17 Sur 39 Sur 0 -- -- 70
2020-11-14 12:00:00 10.1 20 Sur 40 Sur 0 -- -- 69
2020-11-14 11:00:00 9.4 13 Sur 53 Sur 0 -- -- 71
2020-11-14 10:00:00 9.9 26 Sur 61 Sur 0 -- -- 67
2020-11-14 09:00:00 9.5 21 Sudoeste 45 Sudoeste 0 -- -- 70
2020-11-14 08:00:00 7.9 26 Sudoeste 45 Oeste 0 -- -- 75
2020-11-14 07:00:00 7.9 26 Sur 45 Sur 0 -- -- 76
2020-11-14 06:00:00 8 17 Sudoeste 45 Sur 0 -- -- 74
2020-11-14 05:00:00 8.1 19 Sudoeste 41 Sur 0 -- -- 71
2020-11-14 04:00:00 8 19 Sudoeste 43 Sudoeste 0 -- -- 72
2020-11-14 03:00:00 8.3 20 Sur 41 Sudoeste 0 -- -- 72
2020-11-14 02:00:00 8.7 22 Sur 45 Sur 0 -- -- 71
2020-11-14 01:00:00 9.1 22 Sur 44 Sur 0 -- -- 71
2020-11-14 00:00:00 8.9 18 Sur 36 Sur 0 -- -- 73
2020-11-13 23:00:00 8.8 18 Sudoeste 57 Sur 0 -- -- 74
2020-11-13 22:00:00 9.5 21 Sudoeste 46 Sur 0 -- -- 69
2020-11-13 21:00:00 9.7 19 Sur 35 Sur 0 -- -- 68
2020-11-13 20:00:00 9.5 9 Sur 20 Sur 0 -- -- 68
2020-11-13 19:00:00 9.5 5 Oeste 12 Oeste 0 -- -- 70
2020-11-13 18:00:00 10.6 3 Oeste 11 Sudoeste 0 -- -- 63
2020-11-13 17:00:00 11.8 6 Sur 23 Sur 0 -- -- 59
2020-11-13 16:00:00 14.2 12 Sur 21 Sur 0 -- -- 52
2020-11-13 15:00:00 14.2 14 Sur 26 Sur 0 -- -- 53
2020-11-13 14:00:00 13.8 16 Sur 28 Sur 0 -- -- 51
2020-11-13 13:00:00 13.4 15 Sur 34 Sur 0 -- -- 52
2020-11-13 12:00:00 12.3 20 Sur 37 Sur 0.2 -- -- 59
2020-11-13 11:00:00 11.9 22 Sur 42 Sur 0 -- -- 59
2020-11-13 10:00:00 11 15 Sur 29 Sur 0 -- -- 66
2020-11-13 09:00:00 7.9 12 Sur 25 Sur 0 -- -- 78
2020-11-13 08:00:00 7.9 8 Sudoeste 24 Sur 0 -- -- 76
2020-11-13 07:00:00 8.4 6 Sudoeste 18 Sur 0 -- -- 73
2020-11-13 06:00:00 9 10 Sur 19 Sur 0 -- -- 69
2020-11-13 05:00:00 8.2 9 Sudoeste 15 Sur 0 -- -- 71
2020-11-13 04:00:00 7.8 2 Noroeste 13 Sur 0 -- -- 73
2020-11-13 03:00:00 8.7 2 Sudoeste 14 Oeste 0 -- -- 70
2020-11-13 02:00:00 9 4 Sudeste 11 Oeste 0 -- -- 70
2020-11-13 01:00:00 9.8 4 Sudoeste 28 Oeste 0 -- -- 68
2020-11-13 00:00:00 10.5 11 Sudoeste 34 Sur 0 -- -- 60
2020-11-12 23:00:00 10.8 21 Sur 37 Sur 0 -- -- 65
2020-11-12 22:00:00 10.9 16 Sur 34 Sur 0 -- -- 69
2020-11-12 21:00:00 11.1 12 Sudoeste 24 Sudoeste 0 -- -- 71
2020-11-12 20:00:00 11.2 12 Sudoeste 22 Sur 0 -- -- 58
2020-11-12 19:00:00 10.8 10 Sudoeste 16 Sudoeste 0 -- -- 59
2020-11-12 18:00:00 10.5 6 Sudoeste 14 Oeste 0 -- -- 63
2020-11-12 17:00:00 12.3 3 Sudoeste 11 Sur 0 -- -- 59
2020-11-12 16:00:00 14.5 6 Sur 17 Sur 0 -- -- 56
2020-11-12 15:00:00 13.5 8 Sur 19 Sur 0 -- -- 57
2020-11-12 14:00:00 14.6 9 Sudoeste 28 Sudeste 0 -- -- 53
2020-11-12 13:00:00 13.1 17 Sur 29 Sur 0 -- -- 61
2020-11-12 12:00:00 13 8 Sur 27 Sur 0 -- -- 59
2020-11-12 11:00:00 12.1 14 Sur 28 Sur 0 -- -- 61
2020-11-12 10:00:00 11.3 13 Sur 32 Sur 0 -- -- 64
2020-11-12 09:00:00 9.8 7 Sur 27 Oeste 0 -- -- 66
2020-11-12 08:00:00 8.7 7 Sur 29 Sudoeste 0 -- -- 72
2020-11-12 07:00:00 8.3 14 Sudoeste 26 Sudoeste 0 -- -- 75
2020-11-12 06:00:00 8.4 11 Sudoeste 28 Oeste 0 -- -- 77
2020-11-12 05:00:00 8.2 13 Sudoeste 30 Sudoeste 0 -- -- 79
2020-11-12 04:00:00 8.1 12 Oeste 24 Sudoeste 0.2 -- -- 83
2020-11-12 03:00:00 8.5 14 Sudoeste 26 Sudoeste 0 -- -- 79
2020-11-12 02:00:00 9.1 12 Sudoeste 24 Sudoeste 0 -- -- 75
2020-11-12 01:00:00 9.4 10 Sudoeste 28 Sudoeste 0 -- -- 73
2020-11-12 00:00:00 9.4 13 Sudoeste 31 Sur 0 -- -- 71
2020-11-11 23:00:00 9.1 11 Sudoeste 26 Sudoeste 0 -- -- 71
2020-11-11 22:00:00 9.3 13 Sudoeste 27 Sudoeste 0 -- -- 69
2020-11-11 21:00:00 9 10 Sudoeste 20 Sur 0 -- -- 72
2020-11-11 20:00:00 8.3 6 Sur 15 Sur 0 -- -- 76
2020-11-11 19:00:00 8.6 9 Sur 23 Sur 0 -- -- 73
2020-11-11 18:00:00 8.8 10 Sur 28 Sur 0 -- -- 72
2020-11-11 17:00:00 8.9 14 Sur 36 Sudoeste 0 -- -- 70
2020-11-11 16:00:00 8.8 20 Sur 38 Sur 0 -- -- 72
2020-11-11 15:00:00 9.7 12 Sur 32 Sur 0 -- -- 70
2020-11-11 14:00:00 9.8 18 Sur 43 Sur 0 -- -- 68
2020-11-11 13:00:00 9.2 22 Sur 41 Sur 0 -- -- 72
2020-11-11 12:00:00 8.8 25 Sur 40 Sur 0 -- -- 72
2020-11-11 11:00:00 10.1 10 Sudoeste 35 Sur 0 -- -- 64
2020-11-11 10:00:00 8.7 18 Sudoeste 41 Sur 0 -- -- 68
2020-11-11 09:00:00 7.5 21 Sur 47 Sur 0 -- -- 72
2020-11-11 08:00:00 6.5 15 Sur 42 Sur 0 -- -- 75
2020-11-11 07:00:00 6.7 19 Sur 42 Sur 0 -- -- 74
2020-11-11 06:00:00 6.1 8 Sur 24 Sur 0 -- -- 77
2020-11-11 05:00:00 6.4 12 Sudoeste 31 Sur 0 -- -- 76
2020-11-11 04:00:00 5.9 9 Oeste 20 Sur 0 -- -- 78
2020-11-11 03:00:00 6.3 6 Sudeste 16 Sudeste 0 -- -- 76
2020-11-11 02:00:00 5.7 3 Sudeste 36 Sur 0 -- -- 80
2020-11-11 01:00:00 6.8 13 Sur 27 Sur 0 -- -- 75
2020-11-11 00:00:00 7.4 6 Sudoeste 22 Oeste 0 -- -- 73
2020-11-10 23:00:00 7.5 3 Sudeste 25 Sudoeste 0 -- -- 77
2020-11-10 22:00:00 7.9 6 Sur 27 Sur 0 -- -- 76
2020-11-10 21:00:00 8.4 12 Sur 31 Sur 0 -- -- 76
2020-11-10 20:00:00 8.7 8 Sudoeste 26 Sur 0 -- -- 75
2020-11-10 19:00:00 9.3 13 Sudoeste 29 Sudoeste 0 -- -- 70
2020-11-10 18:00:00 10.1 11 Sur 22 Sudeste 0 -- -- 63
2020-11-10 17:00:00 10.9 7 Sudoeste 18 Sudoeste 0 -- -- 60
2020-11-10 16:00:00 12.8 6 Sudoeste 15 Sur 0 -- -- 54
2020-11-10 15:00:00 12.2 10 Sur 18 Oeste 0 -- -- 55
2020-11-10 14:00:00 11.8 8 Sur 15 Sur 0 -- -- 64
2020-11-10 13:00:00 10.4 6 Sur 11 Sur 0 -- -- 72
2020-11-10 12:00:00 9.3 6 Sur 12 Sudeste 0 -- -- 77
2020-11-10 11:00:00 7.4 5 Sudeste 13 Sur 0 -- -- 87
2020-11-10 10:00:00 5.7 2 Sur 8 Sudeste 0 -- -- 90
2020-11-10 09:00:00 4.7 4 Nordeste 9 Nordeste 0 -- -- 89
2020-11-10 08:00:00 4.8 3 Este 9 Sudoeste 0 -- -- 87
2020-11-10 07:00:00 5.1 4 Norte 12 Oeste 0.2 -- -- 85
2020-11-10 06:00:00 5.3 4 Noroeste 7 Noroeste 0 -- -- 90
2020-11-10 05:00:00 4.9 3 Noroeste 6 Norte 0 -- -- 90
2020-11-10 04:00:00 4.7 2 Noroeste 12 Norte 0 -- -- 89
2020-11-10 03:00:00 6 6 Norte 14 Sudoeste 0 -- -- 83
2020-11-10 02:00:00 5.6 7 Oeste 13 Sudoeste 0 -- -- 87
2020-11-10 01:00:00 6.6 3 Oeste 8 Noroeste 0 -- -- 85
2020-11-10 00:00:00 6.8 3 Noroeste 9 Noroeste 0 -- -- 88
2020-11-09 23:00:00 6.5 6 Norte 9 Norte 0 -- -- 89
2020-11-09 22:00:00 6.9 3 Norte 8 Norte 0 -- -- 90
2020-11-09 21:00:00 6.8 3 Norte 6 Norte 0 -- -- 90
2020-11-09 20:00:00 7.6 2 Oeste 12 Norte 0 -- -- 89
2020-11-09 19:00:00 7.7 0 Calma 5 Noroeste 0 -- -- 88
2020-11-09 18:00:00 9 0 Calma 7 Sur 0.6 -- -- 87
2020-11-09 17:00:00 9.4 3 Nordeste 12 Sudoeste 0.6 -- -- 82
2020-11-09 16:00:00 10.4 3 Sudeste 8 Norte 0 -- -- 76
2020-11-09 15:00:00 10.6 4 Sur 14 Sur 0 -- -- 71
2020-11-09 14:00:00 10.2 4 Noroeste 21 Sudoeste 0 -- -- 74
2020-11-09 13:00:00 10 6 Oeste 15 Sur 0 -- -- 75
2020-11-09 12:00:00 9.2 6 Sur 17 Sur 0.4 -- -- 86
2020-11-09 11:00:00 8.4 11 Sur 19 Sur 0.6 -- -- 89
2020-11-09 10:00:00 8.8 13 Sur 22 Sur 0 -- -- 86
2020-11-09 09:00:00 7.9 10 Sur 18 Sur 0.4 -- -- 89
2020-11-09 08:00:00 7.7 7 Sur 21 Sudoeste 0.2 -- -- 89
2020-11-09 07:00:00 7.7 8 Sur 18 Sur 0 -- -- 89
2020-11-09 06:00:00 7.8 13 Sur 22 Sur 0 -- -- 89
2020-11-09 05:00:00 7.9 11 Sur 18 Sur 0 -- -- 87
2020-11-09 04:00:00 7.9 7 Sur 17 Sur 0.2 -- -- 86
2020-11-09 03:00:00 8.5 5 Sur 20 Sudoeste 0 -- -- 82
2020-11-09 02:00:00 8.7 7 Sudoeste 22 Sur 0 -- -- 79
2020-11-09 01:00:00 8.8 9 Sudoeste 20 Sur 0 -- -- 80
2020-11-09 00:00:00 8.7 10 Sur 17 Sudeste 0 -- -- 83
2020-11-08 23:00:00 8.5 6 Sudoeste 15 Sudoeste 0.2 -- -- 85
2020-11-08 22:00:00 9.1 6 Sudoeste 16 Sur 0.2 -- -- 79
2020-11-08 21:00:00 9.1 8 Sudoeste 17 Sudoeste 0 -- -- 84
2020-11-08 20:00:00 9.3 9 Sudoeste 26 Sur 1.8 -- -- 82
2020-11-08 19:00:00 10.1 14 Sur 32 Sur 0.4 -- -- 75
2020-11-08 18:00:00 10.9 10 Sur 34 Sur 0 -- -- 66
2020-11-08 17:00:00 11.4 22 Sur 43 Sur 0 -- -- 65
2020-11-08 16:00:00 11.9 18 Sur 42 Sur 0 -- -- 66
2020-11-08 15:00:00 12.1 18 Sur 41 Sur 0 -- -- 65
2020-11-08 14:00:00 11.4 22 Sur 48 Sur 0 -- -- 68
2020-11-08 13:00:00 10.2 26 Sur 51 Sur 0 -- -- 81
2020-11-08 12:00:00 10.3 23 Sur 42 Sur 0 -- -- 80
2020-11-08 11:00:00 10.3 22 Sur 49 Sur 0 -- -- 80
2020-11-08 10:00:00 9.8 24 Sur 46 Sur 0.2 -- -- 82
2020-11-08 09:00:00 9.6 24 Sur 43 Sur 0 -- -- 81
2020-11-08 08:00:00 9.6 19 Sur 59 Sur 0 -- -- 81
2020-11-08 07:00:00 10 27 Sur 57 Sur 0 -- -- 75
2020-11-08 06:00:00 9.3 17 Sur 35 Sur 0.4 -- -- 86
2020-11-08 05:00:00 9.2 19 Sur 38 Sur 0.2 -- -- 87
2020-11-08 04:00:00 8.9 15 Sur 32 Sur 0 -- -- 87
2020-11-08 03:00:00 9.4 13 Sur 32 Sur 0 -- -- 84
2020-11-08 02:00:00 9.6 16 Sur 41 Sudeste 0 -- -- 82
2020-11-08 01:00:00 9.4 19 Sur 31 Sur 0.2 -- -- 83
2020-11-08 00:00:00 9.2 17 Sur 31 Sur 0 -- -- 84
2020-11-07 23:00:00 9.2 15 Sur 28 Sur 0 -- -- 84
2020-11-07 22:00:00 8.9 14 Sur 28 Sur 0 -- -- 86
2020-11-07 21:00:00 8.6 10 Sur 22 Sur 0.2 -- -- 87
2020-11-07 20:00:00 9.2 10 Sur 24 Sur 0.2 -- -- 84
2020-11-07 19:00:00 9.3 10 Sur 23 Sur 0.2 -- -- 84
2020-11-07 18:00:00 9.8 10 Sur 30 Sudoeste 0 -- -- 80
2020-11-07 17:00:00 9.6 14 Sur 35 Sur 1.2 -- -- 82
2020-11-07 16:00:00 10.1 16 Sur 31 Sur 0.2 -- -- 79
2020-11-07 15:00:00 10.9 16 Sur 37 Sur 0 -- -- 70
2020-11-07 14:00:00 11.1 14 Sur 37 Sur 0 -- -- 65
2020-11-07 13:00:00 12 19 Sur 39 Sur 0 -- -- 58
2020-11-07 12:00:00 12.3 18 Sur 41 Sur 0 -- -- 57
2020-11-07 11:00:00 11 13 Sur 30 Sur 0 -- -- 66
2020-11-07 10:00:00 9 13 Sur 22 Sur 0 -- -- 78
2020-11-07 09:00:00 8.9 14 Sur 29 Sudoeste 0 -- -- 75
2020-11-07 08:00:00 8.8 15 Sudoeste 30 Sudoeste 0 -- -- 74
2020-11-07 07:00:00 9 9 Sudoeste 20 Oeste 0 -- -- 77
2020-11-07 06:00:00 8.8 7 Oeste 17 Noroeste 0 -- -- 76
2020-11-07 05:00:00 9.2 10 Sur 22 Sur 0 -- -- 81
2020-11-07 04:00:00 9.3 13 Sur 27 Sur 0 -- -- 80
2020-11-07 03:00:00 9 12 Sur 39 Sudeste 0 -- -- 82
2020-11-07 02:00:00 10.1 24 Sudoeste 58 Sur 0 -- -- 73
2020-11-07 01:00:00 9.9 21 Sur 44 Sur 0 -- -- 76
2020-11-07 00:00:00 9.7 18 Sudoeste 29 Sur 0.2 -- -- 79
2020-11-06 23:00:00 9.8 15 Sur 45 Sur 0.6 -- -- 80
2020-11-06 22:00:00 10.6 26 Sudoeste 54 Sur 1.6 -- -- 76
2020-11-06 21:00:00 11.8 19 Sudoeste 44 Sur 2.2 -- -- 81
2020-11-06 20:00:00 12.4 22 Sur 58 Sur 0 -- -- 76
2020-11-06 19:00:00 12.7 36 Sur 60 Sur 0 -- -- 73
2020-11-06 18:00:00 12.4 30 Sur 59 Sur 0 -- -- 74
2020-11-06 17:00:00 12.1 28 Sur 54 Sur 0.2 -- -- 75
2020-11-06 16:00:00 12 35 Sur 69 Sur 0 -- -- 75
2020-11-06 15:00:00 12.5 41 Sur 73 Sur 0 -- -- 69
2020-11-06 14:00:00 12.3 46 Sur 76 Sur 0 -- -- 67
2020-11-06 13:00:00 11.1 33 Sur 62 Sur 0 -- -- 74
2020-11-06 12:00:00 10.7 31 Sur 48 Sur 0.4 -- -- 78
2020-11-06 11:00:00 9.6 28 Sur 58 Sur 0.2 -- -- 82
2020-11-06 10:00:00 9.9 30 Sur 52 Sur 0 -- -- 78
2020-11-06 09:00:00 9.4 22 Sur 44 Sur 0 -- -- 78
2020-11-06 08:00:00 9.2 22 Sur 49 Sudoeste 0 -- -- 76
2020-11-06 07:00:00 9 19 Sudoeste 50 Sur 0 -- -- 80
2020-11-06 06:00:00 9 19 Sudoeste 57 Sur 0.6 -- -- 83
2020-11-06 05:00:00 8.8 26 Sur 52 Sur 0.4 -- -- 86
2020-11-06 04:00:00 9.2 34 Sur 57 Sudoeste 0 -- -- 81
2020-11-06 03:00:00 9 32 Sur 50 Sur 0 -- -- 82
2020-11-06 02:00:00 9.1 20 Sur 40 Sur 0 -- -- 80
2020-11-06 01:00:00 9.1 18 Sur 45 Sur 0 -- -- 81
2020-11-06 00:00:00 8.9 23 Sur 40 Sur 0.2 -- -- 85
2020-11-05 23:00:00 9.7 17 Sur 43 Sur 0 -- -- 79
2020-11-05 22:00:00 10.1 18 Sur 39 Sur 0 -- -- 75
2020-11-05 21:00:00 10.1 16 Sur 45 Sudeste 0 -- -- 76
2020-11-05 20:00:00 10.4 21 Sur 51 Sur 0 -- -- 73
2020-11-05 19:00:00 10.4 15 Sur 36 Sur 0 -- -- 72
2020-11-05 18:00:00 10.2 12 Sur 33 Sur 0 -- -- 70
2020-11-05 17:00:00 10.2 12 Sur 37 Sur 0 -- -- 70
2020-11-05 16:00:00 10.2 18 Sur 40 Sur 0 -- -- 69
2020-11-05 15:00:00 10.3 11 Sur 32 Sur 0 -- -- 69
2020-11-05 14:00:00 10.2 15 Sur 36 Sur 0 -- -- 70
2020-11-05 13:00:00 10.9 14 Sur 35 Sur 0 -- -- 69
2020-11-05 12:00:00 7.9 20 Sur 41 Sur 0 -- -- 77
2020-11-05 11:00:00 8.3 24 Sur 48 Sur 0 -- -- 72
2020-11-05 10:00:00 8.1 26 Sur 52 Sur 0 -- -- 72
2020-11-05 09:00:00 7.7 26 Sur 51 Sur 0 -- -- 73
2020-11-05 08:00:00 7.5 20 Sur 53 Sur 0 -- -- 74
2020-11-05 07:00:00 7.6 31 Sur 55 Sur 0 -- -- 72
2020-11-05 06:00:00 7.2 17 Sur 35 Sur 0 -- -- 72
2020-11-05 05:00:00 6.6 21 Sur 47 Sur 0 -- -- 70
2020-11-05 04:00:00 6.6 25 Sur 42 Sur 0 -- -- 68
2020-11-05 03:00:00 6.4 14 Sur 36 Sur 0 -- -- 68
2020-11-05 02:00:00 5.8 13 Sur 26 Sur 0 -- -- 69
2020-11-05 01:00:00 4.9 11 Sur 28 Sur 0 -- -- 70
2020-11-05 00:00:00 3.9 14 Sur 31 Sur 0 -- -- 71